Time;durP1;ratioP1;P1;durP2;ratioP2;P2;SDS_P1;SDS_P2;PMS_P1;PMS_P2;Temp;Humidity;BMP_temperature;BMP_pressure;BME280_temperature;BME280_humidity;BME280_pressure;Samples;Min_cycle;Max_cycle;Signal;HPM_P1;HPM_P2
2022/08/22 00:02:38;;;;;;;8.68;2.28;;;17.80;99.90;;;;;;5051408;28;20173;-50
2022/08/22 00:05:09;;;;;;;12.23;2.45;;;17.80;99.90;;;;;;5051010;28;20548;-50
2022/08/22 00:07:56;;;;;;;15.77;2.60;;;17.70;99.90;;;;;;5051293;28;20204;-50
2022/08/22 00:10:42;;;;;;;9.30;2.38;;;17.60;99.90;;;;;;5051322;28;20201;-51
2022/08/22 00:13:18;;;;;;;11.48;2.15;;;17.50;99.90;;;;;;5051253;28;20242;-50
2022/08/22 00:15:57;;;;;;;11.07;2.20;;;17.50;99.90;;;;;;5051133;28;20173;-50
2022/08/22 00:18:33;;;;;;;11.15;2.63;;;17.50;99.90;;;;;;5051048;28;20264;-50
2022/08/22 00:24:02;;;;;;;9.25;2.53;;;17.40;99.90;;;;;;4124990;22;20225;-50
2022/08/22 00:27:00;;;;;;;9.77;2.53;;;17.40;99.90;;;;;;4991939;28;20261;-52
2022/08/22 00:29:44;;;;;;;10.45;2.90;;;17.40;99.90;;;;;;4991846;28;20241;-50
2022/08/22 00:32:20;;;;;;;9.23;3.25;;;17.40;99.90;;;;;;4991695;28;20179;-50
2022/08/22 00:34:59;;;;;;;12.57;2.15;;;17.40;99.90;;;;;;4991384;28;20174;-50
2022/08/22 00:38:08;;;;;;;10.02;2.38;;;17.40;99.90;;;;;;4991639;28;20167;-50
2022/08/22 00:40:52;;;;;;;15.05;2.70;;;17.40;99.90;;;;;;4948258;28;20582;-50
2022/08/22 00:43:20;;;;;;;12.07;3.25;;;17.40;99.90;;;;;;4991621;28;20171;-50
2022/08/22 00:46:15;;;;;;;11.77;2.72;;;17.40;99.90;;;;;;4991494;28;20210;-50
2022/08/22 00:49:13;;;;;;;11.93;2.40;;;17.30;99.90;;;;;;4991607;28;20171;-52
2022/08/22 00:52:17;;;;;;;10.10;2.45;;;17.30;99.90;;;;;;4991503;28;20183;-51
2022/08/22 00:54:42;;;;;;;13.88;2.90;;;17.30;99.90;;;;;;4921730;28;20293;-50
2022/08/22 00:57:34;;;;;;;12.82;2.63;;;17.30;99.90;;;;;;4991829;28;20262;-50
2022/08/22 01:00:12;;;;;;;10.48;2.67;;;17.20;99.90;;;;;;4991475;28;20179;-50
2022/08/22 01:03:08;;;;;;;13.50;2.88;;;17.20;99.90;;;;;;4991558;28;20287;-50
2022/08/22 01:06:00;;;;;;;12.55;2.72;;;17.20;99.90;;;;;;4991270;28;20293;-50
2022/08/22 01:08:29;;;;;;;13.77;2.80;;;17.20;99.90;;;;;;4987337;28;20612;-50
2022/08/22 01:11:04;;;;;;;12.40;2.33;;;17.20;99.90;;;;;;4991516;28;20277;-51
2022/08/22 01:13:51;;;;;;;15.05;2.65;;;17.20;99.90;;;;;;4991408;28;20175;-51
2022/08/22 01:16:49;;;;;;;16.17;3.05;;;17.20;99.90;;;;;;4991302;28;20179;-50
2022/08/22 01:19:17;;;;;;;10.95;2.95;;;17.20;99.90;;;;;;4991402;28;20203;-50
2022/08/22 01:22:20;;;;;;;11.23;2.78;;;17.20;99.90;;;;;;4991214;28;20168;-51
2022/08/22 01:25:26;;;;;;;13.27;2.55;;;17.10;99.90;;;;;;4990822;28;20223;-51
2022/08/22 01:27:56;;;;;;;12.80;2.70;;;17.20;99.90;;;;;;4991240;28;20189;-50
2022/08/22 01:31:06;;;;;;;9.35;2.45;;;17.20;99.90;;;;;;4991293;28;20379;-51
2022/08/22 01:33:59;;;;;;;11.73;2.97;;;17.10;99.90;;;;;;4971061;28;20541;-51
2022/08/22 01:36:52;;;;;;;12.15;2.75;;;17.10;99.90;;;;;;4991086;28;20549;-50
2022/08/22 01:39:42;;;;;;;11.20;2.85;;;17.10;99.90;;;;;;4990998;28;20195;-51
2022/08/22 01:42:33;;;;;;;10.65;2.70;;;17.10;99.90;;;;;;4991229;28;20213;-50
2022/08/22 01:45:31;;;;;;;8.15;2.75;;;17.10;99.90;;;;;;4991085;28;20214;-50
2022/08/22 01:48:18;;;;;;;9.85;2.95;;;17.10;99.90;;;;;;4992800;28;20171;-51
2022/08/22 01:50:55;;;;;;;16.48;3.55;;;17.10;99.90;;;;;;4994474;28;20196;-51
2022/08/22 01:53:26;;;;;;;12.77;2.90;;;17.10;99.90;;;;;;4994426;28;20590;-51
2022/08/22 01:56:15;;;;;;;12.93;2.78;;;17.10;99.90;;;;;;4993092;28;20207;-50
2022/08/22 01:58:53;;;;;;;14.23;2.97;;;17.10;99.90;;;;;;4993833;28;20253;-50
2022/08/22 02:01:51;;;;;;;8.90;2.65;;;17.10;99.90;;;;;;4994337;28;20261;-51
2022/08/22 02:04:35;;;;;;;7.22;2.60;;;17.00;99.90;;;;;;4983583;28;20700;-51
2022/08/22 02:07:16;;;;;;;9.60;2.95;;;17.00;99.90;;;;;;4994351;28;20673;-50
2022/08/22 02:09:55;;;;;;;11.20;2.95;;;16.20;99.90;;;;;;4994322;28;20166;-50
2022/08/22 02:12:30;;;;;;;8.68;2.65;;;16.90;99.90;;;;;;4993991;28;20194;-50
2022/08/22 02:14:56;;;;;;;8.65;2.50;;;16.80;99.90;;;;;;4994102;28;20175;-50
2022/08/22 02:17:32;;;;;;;8.57;2.65;;;16.80;99.90;;;;;;4994078;28;20253;-51
2022/08/22 02:20:16;;;;;;;12.00;2.97;;;16.70;99.90;;;;;;4993893;28;20211;-50
2022/08/22 02:23:07;;;;;;;12.93;3.38;;;16.80;99.90;;;;;;4993852;28;20202;-50
2022/08/22 02:26:00;;;;;;;12.48;4.80;;;16.80;99.90;;;;;;4993931;28;20219;-51
2022/08/22 02:28:53;;;;;;;8.43;3.00;;;16.80;99.90;;;;;;4993848;28;20167;-50
2022/08/22 02:31:27;;;;;;;13.20;3.13;;;16.80;99.90;;;;;;4992438;28;20402;-51
2022/08/22 02:34:00;;;;;;;10.45;3.28;;;16.90;99.90;;;;;;4993692;28;20171;-51
2022/08/22 02:36:46;;;;;;;15.77;3.03;;;16.90;99.90;;;;;;4993708;28;20326;-51
2022/08/22 02:39:33;;;;;;;15.52;3.58;;;16.90;99.90;;;;;;4993575;28;20206;-51
2022/08/22 02:42:20;;;;;;;15.68;3.17;;;16.90;99.90;;;;;;4993766;28;20187;-51
2022/08/22 02:45:28;;;;;;;10.07;2.97;;;16.80;99.90;;;;;;4992274;28;20213;-52
2022/08/22 02:48:11;;;;;;;10.90;3.38;;;16.80;99.90;;;;;;4993424;28;20202;-56
2022/08/22 02:51:04;;;;;;;11.60;3.67;;;16.80;99.90;;;;;;4993479;28;20171;-52
2022/08/22 02:53:38;;;;;;;10.70;3.53;;;16.80;99.90;;;;;;4993496;28;20544;-51
2022/08/22 02:56:22;;;;;;;14.43;3.47;;;16.80;99.90;;;;;;4993325;28;20175;-51
2022/08/22 02:59:10;;;;;;;12.18;3.30;;;16.70;99.90;;;;;;4993290;28;20700;-52
2022/08/22 03:01:40;;;;;;;13.35;3.90;;;16.70;99.90;;;;;;4993270;28;20179;-52
2022/08/22 03:04:26;;;;;;;10.23;3.42;;;16.70;99.90;;;;;;4993277;28;20163;-52
2022/08/22 03:07:20;;;;;;;11.65;3.42;;;16.70;99.90;;;;;;4993117;28;20225;-51
2022/08/22 03:10:09;;;;;;;10.57;3.40;;;16.70;99.90;;;;;;4993081;28;20174;-51
2022/08/22 03:12:47;;;;;;;13.80;3.63;;;16.60;99.90;;;;;;4992987;28;20183;-51
2022/08/22 03:15:18;;;;;;;13.63;4.10;;;16.60;99.90;;;;;;4992887;28;20177;-51
2022/08/22 03:18:18;;;;;;;11.30;3.80;;;16.60;99.90;;;;;;4992960;28;20225;-51
2022/08/22 03:20:52;;;;;;;13.52;3.55;;;16.50;99.90;;;;;;4992773;28;20217;-51
2022/08/22 03:23:37;;;;;;;10.02;3.55;;;16.50;99.90;;;;;;4992569;28;20245;-51
2022/08/22 03:26:28;;;;;;;12.77;3.55;;;16.50;99.90;;;;;;4992828;28;20223;-51
2022/08/22 03:29:05;;;;;;;12.43;3.90;;;16.40;99.90;;;;;;4992601;28;20175;-51
2022/08/22 03:31:31;;;;;;;9.52;3.50;;;16.40;99.90;;;;;;4992666;28;20167;-51
2022/08/22 03:34:25;;;;;;;12.23;4.40;;;16.40;99.90;;;;;;4992526;28;20174;-51
2022/08/22 03:37:14;;;;;;;15.48;3.90;;;16.40;99.90;;;;;;4992654;28;20271;-51
2022/08/22 03:40:04;;;;;;;9.20;3.38;;;16.40;99.90;;;;;;4992581;28;20163;-51
2022/08/22 03:42:51;;;;;;;13.07;3.92;;;16.40;99.90;;;;;;4992495;28;20175;-51
2022/08/22 03:45:32;;;;;;;18.55;4.97;;;16.40;99.90;;;;;;4992335;28;20215;-51
2022/08/22 03:48:22;;;;;;;15.65;4.40;;;16.40;99.90;;;;;;4992293;28;20218;-50
2022/08/22 03:50:50;;;;;;;18.55;4.72;;;16.40;99.90;;;;;;4992301;28;20542;-50
2022/08/22 03:53:31;;;;;;;13.80;4.40;;;16.40;99.90;;;;;;4992347;28;20179;-51
2022/08/22 03:56:37;;;;;;;16.50;4.90;;;16.40;99.90;;;;;;4992172;28;20657;-51
2022/08/22 03:59:27;;;;;;;17.67;4.97;;;16.40;99.90;;;;;;4963576;28;20194;-51
2022/08/22 04:02:17;;;;;;;13.75;5.20;;;16.50;99.90;;;;;;4992182;28;20283;-51
2022/08/22 04:05:18;;;;;;;16.40;5.10;;;16.50;99.90;;;;;;4992004;28;20203;-51
2022/08/22 04:08:11;;;;;;;10.68;4.00;;;16.50;99.90;;;;;;4992087;28;20177;-51
2022/08/22 04:10:40;;;;;;;8.73;3.90;;;16.60;99.90;;;;;;4991547;28;20203;-51
2022/08/22 04:13:24;;;;;;;13.07;3.75;;;16.60;99.90;;;;;;4991881;28;20172;-51
2022/08/22 04:16:21;;;;;;;14.80;4.05;;;16.50;99.90;;;;;;4992122;28;20172;-51
2022/08/22 04:19:19;;;;;;;15.88;4.28;;;16.60;99.90;;;;;;4991879;28;20257;-51
2022/08/22 04:22:20;;;;;;;14.23;4.72;;;16.50;99.90;;;;;;4948559;28;20193;-51
2022/08/22 04:25:04;;;;;;;10.23;4.13;;;16.50;99.90;;;;;;4977652;28;20261;-51
2022/08/22 04:27:42;;;;;;;12.70;4.47;;;16.50;99.90;;;;;;4991761;28;20209;-51
2022/08/22 04:30:33;;;;;;;11.55;5.18;;;16.50;99.90;;;;;;4991676;28;20664;-51
2022/08/22 04:32:59;;;;;;;19.20;9.88;;;16.60;99.90;;;;;;4991813;28;20198;-51
2022/08/22 04:35:36;;;;;;;23.00;10.57;;;16.50;99.90;;;;;;4991768;28;20182;-51
2022/08/22 04:38:17;;;;;;;19.73;9.52;;;16.60;99.90;;;;;;4991580;28;20179;-51
2022/08/22 04:40:52;;;;;;;22.35;9.48;;;16.60;99.90;;;;;;4991831;28;20175;-51
2022/08/22 04:43:28;;;;;;;19.35;9.02;;;16.60;99.90;;;;;;4991647;28;20171;-51
2022/08/22 04:46:10;;;;;;;21.45;9.65;;;16.70;99.90;;;;;;4991555;28;20219;-51
2022/08/22 04:49:05;;;;;;;21.20;9.23;;;16.70;99.90;;;;;;4991580;28;20178;-51
2022/08/22 04:51:34;;;;;;;20.38;9.23;;;16.80;99.90;;;;;;4958187;28;20196;-51
2022/08/22 04:54:24;;;;;;;21.55;9.07;;;16.70;99.90;;;;;;4991673;28;20186;-51
2022/08/22 04:57:21;;;;;;;19.00;9.05;;;16.80;99.90;;;;;;4991537;28;20167;-51
2022/08/22 04:59:49;;;;;;;20.02;8.93;;;16.80;99.90;;;;;;4991453;28;20507;-51
2022/08/22 05:02:21;;;;;;;19.67;9.30;;;16.80;99.90;;;;;;4991532;28;20179;-51
2022/08/22 05:04:55;;;;;;;21.65;9.13;;;16.80;99.90;;;;;;4991376;28;20244;-51
2022/08/22 05:07:27;;;;;;;20.50;8.75;;;16.80;99.90;;;;;;4991301;28;20213;-51
2022/08/22 05:10:18;;;;;;;19.25;8.82;;;16.80;99.90;;;;;;4991612;28;20175;-52
2022/08/22 05:13:02;;;;;;;20.83;8.93;;;16.80;99.90;;;;;;4980024;28;20660;-51
2022/08/22 05:15:49;;;;;;;21.95;9.48;;;16.70;99.90;;;;;;4991359;28;20175;-51
2022/08/22 05:18:24;;;;;;;19.90;8.00;;;16.70;99.90;;;;;;4991229;28;20171;-51
2022/08/22 05:20:51;;;;;;;18.17;8.32;;;16.70;99.90;;;;;;4991323;28;20194;-51
2022/08/22 05:23:40;;;;;;;24.70;8.50;;;16.60;99.90;;;;;;4993659;28;20690;-51
2022/08/22 05:26:07;;;;;;;18.25;7.68;;;16.60;99.90;;;;;;4954594;28;20226;-51
2022/08/22 05:28:58;;;;;;;17.42;8.63;;;16.60;99.90;;;;;;4994930;28;20183;-51
2022/08/22 05:31:46;;;;;;;18.40;8.63;;;16.60;99.90;;;;;;4993631;28;20718;-51
2022/08/22 05:34:17;;;;;;;18.25;7.93;;;16.50;99.90;;;;;;4994914;28;20180;-51
2022/08/22 05:36:48;;;;;;;17.85;8.07;;;16.50;99.90;;;;;;4994698;28;20229;-51
2022/08/22 05:39:20;;;;;;;21.05;8.40;;;16.60;99.90;;;;;;4994948;28;20175;-52
2022/08/22 05:41:46;;;;;;;15.30;7.72;;;16.60;99.90;;;;;;4994918;28;20175;-51
2022/08/22 05:44:19;;;;;;;26.10;8.23;;;16.60;99.90;;;;;;4994612;28;20585;-51
2022/08/22 05:46:50;;;;;;;17.20;8.05;;;16.60;99.90;;;;;;4994591;28;20215;-51
2022/08/22 05:49:28;;;;;;;20.23;7.88;;;16.70;99.90;;;;;;4994538;28;20167;-51
2022/08/22 05:52:04;;;;;;;13.60;8.02;;;16.80;99.90;;;;;;4994536;28;20216;-51
2022/08/22 05:54:34;;;;;;;16.60;7.45;;;16.90;99.90;;;;;;4994579;28;20518;-51
2022/08/22 05:57:21;;;;;;;19.40;7.35;;;17.00;99.90;;;;;;4994418;28;20186;-51
2022/08/22 05:59:52;;;;;;;21.17;7.57;;;17.10;99.90;;;;;;4994453;28;20167;-51
2022/08/22 06:02:34;;;;;;;21.52;7.60;;;17.10;99.90;;;;;;4994395;28;20273;-52
2022/08/22 06:05:03;;;;;;;18.17;8.48;;;17.30;99.90;;;;;;4994140;28;20629;-51
2022/08/22 06:07:40;;;;;;;15.07;7.85;;;17.10;99.90;;;;;;4994282;28;20164;-51
2022/08/22 06:10:17;;;;;;;13.68;6.90;;;17.30;99.90;;;;;;4994176;28;20171;-51
2022/08/22 06:12:46;;;;;;;22.10;7.80;;;17.40;99.90;;;;;;4994079;28;20206;-51
2022/08/22 06:15:20;;;;;;;19.25;7.53;;;17.50;99.90;;;;;;4994200;28;20280;-51
2022/08/22 06:17:50;;;;;;;14.80;7.10;;;17.60;99.90;;;;;;4994057;28;20182;-51
2022/08/22 06:20:21;;;;;;;14.05;6.70;;;17.40;99.90;;;;;;4993974;28;20180;-51
2022/08/22 06:22:52;;;;;;;14.68;6.55;;;17.60;99.90;;;;;;4993790;28;20182;-51
2022/08/22 06:25:31;;;;;;;15.77;6.75;;;17.80;99.90;;;;;;4993979;28;20346;-51
2022/08/22 06:28:21;;;;;;;17.92;7.05;;;17.60;99.90;;;;;;4993683;28;20164;-51
2022/08/22 06:30:49;;;;;;;11.80;6.00;;;17.60;99.90;;;;;;4983103;28;20183;-51
2022/08/22 06:33:26;;;;;;;20.13;6.93;;;17.70;99.90;;;;;;4993392;28;20299;-51
2022/08/22 06:38:52;;;;;;;17.60;6.55;;;17.80;99.90;;;;;;4993619;28;20546;-52
2022/08/22 06:41:21;;;;;;;12.02;7.25;;;17.80;99.90;;;;;;4993455;28;20187;-51
2022/08/22 06:43:51;;;;;;;16.55;7.18;;;17.80;99.90;;;;;;4993634;28;20168;-52
2022/08/22 06:46:21;;;;;;;11.63;6.32;;;17.80;99.90;;;;;;4993375;28;20232;-51
2022/08/22 06:48:47;;;;;;;15.30;6.60;;;17.80;99.90;;;;;;4993337;28;20167;-52
2022/08/22 06:51:16;;;;;;;14.75;6.00;;;17.80;99.90;;;;;;4993288;28;20207;-51
2022/08/22 06:53:49;;;;;;;16.95;7.10;;;17.90;99.90;;;;;;4993208;28;20646;-52
2022/08/22 06:56:24;;;;;;;17.20;7.05;;;18.00;99.90;;;;;;4993408;28;20185;-51
2022/08/22 06:58:55;;;;;;;16.23;8.15;;;18.00;99.90;;;;;;4993159;28;20175;-51
2022/08/22 07:01:38;;;;;;;13.75;6.65;;;18.00;99.90;;;;;;4993134;28;20176;-52
2022/08/22 07:04:08;;;;;;;14.90;7.05;;;18.10;99.90;;;;;;4993021;28;20183;-52
2022/08/22 07:06:48;;;;;;;15.55;7.57;;;18.00;99.90;;;;;;4992986;28;20231;-51
2022/08/22 07:09:28;;;;;;;15.10;6.60;;;18.10;99.90;;;;;;4992864;28;20171;-51
2022/08/22 07:11:56;;;;;;;16.73;6.50;;;18.30;99.90;;;;;;4992971;28;20193;-51
2022/08/22 07:14:37;;;;;;;18.50;6.80;;;18.40;99.90;;;;;;4992838;28;20638;-51
2022/08/22 07:17:09;;;;;;;18.17;6.38;;;18.20;99.90;;;;;;4992800;28;20190;-51
2022/08/22 07:19:47;;;;;;;15.43;6.35;;;18.20;99.90;;;;;;4992730;28;20179;-51
2022/08/22 07:22:34;;;;;;;15.40;6.55;;;18.40;99.90;;;;;;4992720;28;20171;-52
2022/08/22 07:25:13;;;;;;;15.20;6.35;;;18.20;99.90;;;;;;4992406;28;20237;-51
2022/08/22 07:28:16;;;;;;;13.68;6.35;;;18.40;99.90;;;;;;4992458;28;20182;-52
2022/08/22 07:30:58;;;;;;;15.32;7.00;;;18.50;99.90;;;;;;4992548;28;20660;-51
2022/08/22 07:33:43;;;;;;;18.35;5.75;;;18.40;99.90;;;;;;4992340;28;20213;-51
2022/08/22 07:36:30;;;;;;;18.98;6.25;;;18.60;99.90;;;;;;4992489;28;20211;-51
2022/08/22 07:39:05;;;;;;;15.38;6.00;;;18.70;99.90;;;;;;4992401;28;20182;-51
2022/08/22 07:41:46;;;;;;;13.27;6.60;;;18.80;99.90;;;;;;4992141;28;20171;-51
2022/08/22 07:44:17;;;;;;;10.05;5.32;;;19.10;99.90;;;;;;4992040;28;20670;-51
2022/08/22 07:46:50;;;;;;;17.42;5.95;;;19.10;99.90;;;;;;4991703;28;20297;-52
2022/08/22 07:49:25;;;;;;;17.80;5.68;;;19.20;99.90;;;;;;4992222;28;20194;-52
2022/08/22 07:51:58;;;;;;;14.68;4.78;;;19.40;99.90;;;;;;4992053;28;20175;-51
2022/08/22 07:54:42;;;;;;;14.32;4.80;;;19.60;99.90;;;;;;4992113;28;20545;-52
2022/08/22 07:57:15;;;;;;;13.23;4.90;;;19.90;99.90;;;;;;4992063;28;20633;-51
2022/08/22 07:59:52;;;;;;;18.13;4.18;;;19.70;99.90;;;;;;4991924;28;20657;-51
2022/08/22 08:02:19;;;;;;;14.60;3.65;;;19.70;99.90;;;;;;4991968;28;20645;-51
2022/08/22 08:04:48;;;;;;;12.90;2.97;;;20.00;99.90;;;;;;4991835;28;20190;-51
2022/08/22 08:07:18;;;;;;;9.70;2.65;;;20.30;99.90;;;;;;4992108;28;20190;-52
2022/08/22 08:09:53;;;;;;;10.10;2.53;;;20.00;99.90;;;;;;4991868;28;20171;-52
2022/08/22 08:12:39;;;;;;;13.38;3.10;;;19.90;99.90;;;;;;4991855;28;20173;-51
2022/08/22 08:15:09;;;;;;;12.85;2.60;;;19.70;99.90;;;;;;4992010;28;20175;-52
2022/08/22 08:17:37;;;;;;;9.43;2.80;;;19.70;99.90;;;;;;4991758;28;20182;-51
2022/08/22 08:20:09;;;;;;;13.68;2.90;;;19.90;99.90;;;;;;4991716;28;20171;-51
2022/08/22 08:22:37;;;;;;;16.42;2.65;;;19.90;99.90;;;;;;4991768;28;20179;-51
2022/08/22 08:25:04;;;;;;;15.00;2.70;;;20.10;99.90;;;;;;4991385;28;20231;-52
2022/08/22 08:30:22;;;;;;;15.98;2.40;;;20.00;99.90;;;;;;4991991;28;20194;-51
2022/08/22 08:32:55;;;;;;;18.08;2.58;;;20.10;99.90;;;;;;4991676;28;20179;-51
2022/08/22 08:35:25;;;;;;;10.00;2.30;;;20.20;99.90;;;;;;4991643;28;20167;-51
2022/08/22 08:38:01;;;;;;;18.70;2.53;;;20.30;99.90;;;;;;4991690;28;20190;-52
2022/08/22 08:40:29;;;;;;;11.75;2.50;;;20.30;99.90;;;;;;4991413;28;20219;-51
2022/08/22 08:43:27;;;;;;;7.93;2.28;;;20.10;99.90;;;;;;4991439;28;20203;-51
2022/08/22 08:46:07;;;;;;;12.02;2.80;;;19.70;99.90;;;;;;4991329;28;20298;-51
2022/08/22 08:48:35;;;;;;;7.35;2.22;;;19.70;99.90;;;;;;4991494;28;20163;-51
2022/08/22 08:51:30;;;;;;;9.52;2.33;;;19.70;99.90;;;;;;4991277;28;20199;-51
2022/08/22 08:54:20;;;;;;;11.68;2.50;;;19.70;99.90;;;;;;4991393;28;20215;-52
2022/08/22 08:56:48;;;;;;;7.47;2.28;;;19.80;99.90;;;;;;4993160;28;20159;-51
2022/08/22 08:59:39;;;;;;;8.25;2.13;;;19.90;99.90;;;;;;4995404;28;20273;-51
2022/08/22 09:02:19;;;;;;;12.75;2.42;;;20.00;99.90;;;;;;4995208;28;20548;-51
2022/08/22 09:05:06;;;;;;;8.35;2.00;;;20.10;99.90;;;;;;4995089;28;20175;-51
2022/08/22 09:07:52;;;;;;;14.77;2.35;;;20.30;99.90;;;;;;4995254;28;20171;-52
2022/08/22 09:10:54;;;;;;;6.65;2.35;;;20.30;99.90;;;;;;4995265;28;20176;-52
2022/08/22 09:13:25;;;;;;;9.98;2.20;;;20.30;99.90;;;;;;4994906;28;20170;-51
2022/08/22 09:16:16;;;;;;;8.88;2.45;;;20.60;99.90;;;;;;4995031;28;20704;-51
2022/08/22 09:19:20;;;;;;;8.10;2.20;;;20.60;99.90;;;;;;4995131;28;20182;-52
2022/08/22 09:22:03;;;;;;;11.48;2.40;;;20.80;99.90;;;;;;4971842;28;20186;-52
2022/08/22 09:24:51;;;;;;;8.60;1.90;;;20.80;99.90;;;;;;4994769;28;20229;-51
2022/08/22 09:27:48;;;;;;;7.05;1.60;;;20.80;99.90;;;;;;4994642;28;20187;-52
2022/08/22 09:30:18;;;;;;;12.88;2.00;;;20.80;99.90;;;;;;4989059;28;20187;-51
2022/08/22 09:33:05;;;;;;;10.05;2.00;;;20.80;99.90;;;;;;4994908;28;20229;-52
2022/08/22 09:35:39;;;;;;;8.32;2.25;;;20.70;99.90;;;;;;4994795;28;20174;-51
2022/08/22 09:38:14;;;;;;;8.23;1.92;;;20.50;99.90;;;;;;4994734;28;20217;-52
2022/08/22 09:40:59;;;;;;;10.38;1.58;;;20.20;99.90;;;;;;4994620;28;20642;-52
2022/08/22 09:43:42;;;;;;;7.72;1.88;;;20.30;99.90;;;;;;4994773;28;20179;-52
2022/08/22 09:46:22;;;;;;;10.15;2.03;;;20.30;99.90;;;;;;4994522;28;20206;-51
2022/08/22 09:48:56;;;;;;;7.40;2.08;;;20.20;99.90;;;;;;4977226;28;20232;-51
2022/08/22 09:51:54;;;;;;;6.45;1.65;;;20.10;99.90;;;;;;4994558;28;20179;-51
2022/08/22 09:54:47;;;;;;;8.73;1.85;;;20.10;99.90;;;;;;4987105;28;20553;-52
2022/08/22 09:57:31;;;;;;;4.22;1.75;;;20.10;99.90;;;;;;4994590;28;20187;-51
2022/08/22 10:00:15;;;;;;;8.80;1.50;;;19.90;99.90;;;;;;4994404;28;20175;-52
2022/08/22 10:03:02;;;;;;;8.00;1.73;;;19.70;99.90;;;;;;4994189;28;20512;-51
2022/08/22 10:05:30;;;;;;;5.40;1.60;;;19.90;99.90;;;;;;4994168;28;20215;-51
2022/08/22 10:08:43;;;;;;;10.02;1.70;;;19.80;99.90;;;;;;4993341;28;20281;-51
2022/08/22 10:11:17;;;;;;;5.60;1.35;;;19.80;99.90;;;;;;4924223;28;20186;-52
2022/08/22 10:14:16;;;;;;;6.88;1.33;;;19.90;99.90;;;;;;4994173;28;20645;-52
2022/08/22 10:17:07;;;;;;;3.75;1.20;;;19.90;99.90;;;;;;4994143;28;20183;-52
2022/08/22 10:19:51;;;;;;;8.73;1.67;;;19.90;99.90;;;;;;4994066;28;20211;-51
2022/08/22 10:22:40;;;;;;;7.28;1.60;;;19.80;99.90;;;;;;4993842;28;20652;-52
2022/08/22 10:25:34;;;;;;;7.13;1.90;;;20.00;99.90;;;;;;4993688;28;20231;-51
2022/08/22 10:28:17;;;;;;;5.53;1.60;;;20.10;99.90;;;;;;4993800;28;20666;-51
2022/08/22 10:31:07;;;;;;;8.35;1.90;;;20.20;99.90;;;;;;4993864;28;20254;-52
2022/08/22 10:33:36;;;;;;;11.70;1.80;;;20.20;99.90;;;;;;4993721;28;20179;-51
2022/08/22 10:36:22;;;;;;;6.53;1.40;;;20.20;99.90;;;;;;4993667;28;20689;-51
2022/08/22 10:38:54;;;;;;;8.20;1.48;;;20.30;99.90;;;;;;4993601;28;20546;-52
2022/08/22 10:42:02;;;;;;;8.85;1.77;;;20.40;99.90;;;;;;4993744;28;20178;-52
2022/08/22 10:44:50;;;;;;;8.20;1.92;;;20.60;99.90;;;;;;4950197;28;20186;-51
2022/08/22 10:47:22;;;;;;;6.88;1.65;;;20.90;99.90;;;;;;4993388;28;20191;-52
2022/08/22 10:49:57;;;;;;;5.40;1.38;;;20.80;99.90;;;;;;4993636;28;20234;-51
2022/08/22 10:52:34;;;;;;;6.40;1.83;;;20.70;99.90;;;;;;4993328;28;20192;-52
2022/08/22 10:55:14;;;;;;;4.22;1.40;;;20.80;99.90;;;;;;4993404;28;20178;-52
2022/08/22 10:57:53;;;;;;;11.65;1.40;;;21.00;99.90;;;;;;4992976;28;20167;-52
2022/08/22 11:00:41;;;;;;;4.68;1.10;;;21.00;99.90;;;;;;4993353;28;20202;-52
2022/08/22 11:03:23;;;;;;;2.88;1.10;;;21.10;99.90;;;;;;4993100;28;20251;-52
2022/08/22 11:05:51;;;;;;;2.15;0.80;;;20.70;99.90;;;;;;4992975;28;20214;-51
2022/08/22 11:08:29;;;;;;;6.35;1.60;;;20.90;99.90;;;;;;4993109;28;20187;-52
2022/08/22 11:11:04;;;;;;;4.90;1.48;;;21.10;99.90;;;;;;4993003;28;20672;-52
2022/08/22 11:14:18;;;;;;;6.63;1.50;;;21.20;99.90;;;;;;4992967;28;20174;-52
2022/08/22 11:17:01;;;;;;;6.65;1.55;;;21.30;99.90;;;;;;4975642;28;20195;-52
2022/08/22 11:19:30;;;;;;;5.60;1.17;;;21.30;99.90;;;;;;4992995;28;20183;-52
2022/08/22 11:21:59;;;;;;;6.55;1.40;;;21.10;99.90;;;;;;4992738;28;20195;-52
2022/08/22 11:24:30;;;;;;;3.58;1.25;;;20.90;99.90;;;;;;4992537;28;20245;-52
2022/08/22 11:27:15;;;;;;;6.13;1.73;;;20.60;99.90;;;;;;4992532;28;20214;-52
2022/08/22 11:29:58;;;;;;;5.53;1.70;;;20.60;99.90;;;;;;4992708;28;20214;-51
2022/08/22 11:32:42;;;;;;;3.92;1.40;;;20.50;99.90;;;;;;4992672;28;20190;-52
2022/08/22 11:35:50;;;;;;;3.92;1.65;;;20.60;99.90;;;;;;4992499;28;20181;-52
2022/08/22 11:38:28;;;;;;;3.97;1.98;;;20.50;99.90;;;;;;4992370;28;20167;-52
2022/08/22 11:41:28;;;;;;;6.93;1.80;;;20.50;99.90;;;;;;4992534;28;20767;-52
2022/08/22 11:44:11;;;;;;;5.15;1.73;;;20.30;99.90;;;;;;4952447;28;20187;-51
2022/08/22 11:46:41;;;;;;;11.77;1.70;;;20.40;99.90;;;;;;4992244;28;20207;-52
2022/08/22 11:49:31;;;;;;;8.70;1.67;;;20.80;99.90;;;;;;4992403;28;20163;-52
2022/08/22 11:52:09;;;;;;;6.30;2.08;;;21.20;99.90;;;;;;4992208;28;20258;-52
2022/08/22 11:54:54;;;;;;;7.05;1.70;;;21.40;99.90;;;;;;4992214;28;20254;-51
2022/08/22 11:57:26;;;;;;;5.32;1.63;;;21.40;99.90;;;;;;4992216;28;20172;-52
2022/08/22 12:00:11;;;;;;;3.83;1.65;;;21.20;99.90;;;;;;4992104;28;20209;-52
2022/08/22 12:03:13;;;;;;;9.95;1.60;;;20.90;99.90;;;;;;4992056;28;20591;-52
2022/08/22 12:05:43;;;;;;;3.42;1.42;;;20.90;99.90;;;;;;4992120;28;20269;-52
2022/08/22 12:08:15;;;;;;;3.28;1.63;;;20.80;99.90;;;;;;4991938;28;20183;-52
2022/08/22 12:10:56;;;;;;;6.65;1.92;;;20.80;99.90;;;;;;4991998;28;20837;-52
2022/08/22 12:14:00;;;;;;;2.78;1.65;;;20.70;99.90;;;;;;4991898;28;20171;-51
2022/08/22 12:16:57;;;;;;;5.97;1.88;;;20.60;99.90;;;;;;4988310;28;20375;-52
2022/08/22 12:19:32;;;;;;;5.68;1.60;;;20.60;99.90;;;;;;4991640;28;20662;-52
2022/08/22 12:22:01;;;;;;;4.15;1.50;;;20.60;99.90;;;;;;4991492;28;20225;-52
2022/08/22 12:24:41;;;;;;;5.05;1.50;;;20.60;99.90;;;;;;4991682;28;20223;-52
2022/08/22 12:27:26;;;;;;;4.60;1.02;;;20.60;99.90;;;;;;4991515;28;20183;-52
2022/08/22 12:29:58;;;;;;;6.53;1.30;;;20.90;99.90;;;;;;4991719;28;20634;-52
2022/08/22 12:32:57;;;;;;;4.47;1.33;;;21.00;99.90;;;;;;4991233;28;20262;-51
2022/08/22 12:35:51;;;;;;;2.53;1.30;;;20.80;99.90;;;;;;4991370;28;20673;-51
2022/08/22 12:38:38;;;;;;;1.73;1.10;;;20.70;99.90;;;;;;4991784;28;20176;-52
2022/08/22 12:41:38;;;;;;;4.00;1.23;;;20.70;99.90;;;;;;4991580;28;20175;-52
2022/08/22 12:44:20;;;;;;;6.78;1.50;;;20.70;99.90;;;;;;4991598;28;20654;-52
2022/08/22 12:47:09;;;;;;;4.63;1.65;;;20.60;99.90;;;;;;4990141;28;20253;-52
2022/08/22 12:49:47;;;;;;;2.92;1.65;;;20.60;99.90;;;;;;4991367;28;20171;-52
2022/08/22 12:52:34;;;;;;;3.15;1.38;;;20.50;99.90;;;;;;4991402;28;20186;-52
2022/08/22 12:55:08;;;;;;;4.43;1.55;;;20.20;99.90;;;;;;4991342;28;20266;-53
2022/08/22 12:57:54;;;;;;;3.10;1.90;;;20.10;99.90;;;;;;4991407;28;20213;-53
2022/08/22 13:00:30;;;;;;;3.53;2.20;;;19.80;99.90;;;;;;4991361;28;20163;-52
2022/08/22 13:03:01;;;;;;;5.47;2.40;;;19.50;99.90;;;;;;4991265;28;20250;-53
2022/08/22 13:05:29;;;;;;;5.22;2.13;;;19.50;99.90;;;;;;4991448;28;20209;-53
2022/08/22 13:08:02;;;;;;;4.47;2.60;;;19.50;99.90;;;;;;4991376;28;20246;-53
2022/08/22 13:10:55;;;;;;;3.30;2.53;;;19.70;99.90;;;;;;4991431;28;20645;-52
2022/08/22 13:13:48;;;;;;;4.15;2.20;;;19.70;99.90;;;;;;4991755;28;20266;-53
2022/08/22 13:16:18;;;;;;;4.35;2.35;;;19.70;99.90;;;;;;4991373;28;20179;-54
2022/08/22 13:18:55;;;;;;;3.47;2.40;;;19.60;99.90;;;;;;4991258;28;20238;-53
2022/08/22 13:21:26;;;;;;;2.90;2.10;;;19.70;99.90;;;;;;4991384;28;20496;-53
2022/08/22 13:23:56;;;;;;;4.03;2.63;;;19.80;99.90;;;;;;4991127;28;20226;-56
2022/08/22 13:26:25;;;;;;;5.93;2.25;;;19.90;99.90;;;;;;4991076;28;20211;-54
2022/08/22 13:28:58;;;;;;;4.63;2.42;;;19.90;99.90;;;;;;4991087;28;20187;-53
2022/08/22 13:31:26;;;;;;;4.53;1.98;;;19.90;99.90;;;;;;4991032;28;20207;-53
2022/08/22 13:34:01;;;;;;;3.22;2.13;;;20.00;99.90;;;;;;4991354;28;20180;-52
2022/08/22 13:36:30;;;;;;;5.88;1.95;;;20.10;99.90;;;;;;4991099;28;20221;-53
2022/08/22 13:39:11;;;;;;;6.22;2.33;;;20.10;99.90;;;;;;4991098;28;20577;-52
2022/08/22 13:41:47;;;;;;;4.90;2.60;;;20.10;99.90;;;;;;4991144;28;20171;-53
2022/08/22 13:44:27;;;;;;;5.40;2.28;;;20.10;99.90;;;;;;4993165;28;20266;-52
2022/08/22 13:47:01;;;;;;;2.60;1.75;;;20.30;99.90;;;;;;4994595;28;20210;-53
2022/08/22 13:49:34;;;;;;;3.08;1.73;;;20.80;99.90;;;;;;4994378;28;20641;-52
2022/08/22 13:52:05;;;;;;;4.47;1.60;;;21.00;99.90;;;;;;4994547;28;20171;-53
2022/08/22 13:54:52;;;;;;;2.08;1.23;;;21.20;99.90;;;;;;4994445;28;20195;-52
2022/08/22 13:57:24;;;;;;;6.18;1.40;;;21.50;99.90;;;;;;4994523;28;20211;-53
2022/08/22 13:59:57;;;;;;;1.58;1.38;;;21.90;99.90;;;;;;4994507;28;20187;-53
2022/08/22 14:02:50;;;;;;;5.95;1.35;;;22.10;99.90;;;;;;4994436;28;20246;-52